Time;durP1;ratioP1;P1;durP2;ratioP2;P2;SDS_P1;SDS_P2;PMS_P1;PMS_P2;Temp;Humidity;BMP_temperature;BMP_pressure;BME280_temperature;BME280_humidity;BME280_pressure;Samples;Min_cycle;Max_cycle;Signal;HPM_P1;HPM_P2
2022/02/10 00:17:03;;;;;;;;;;;8.10;99.90;8.60;100607.00;;;;342869;28;85191;-85
2022/02/10 00:17:43;;;;;;;;;;;8.10;99.90;8.60;100615.00;;;;346984;28;84958;-85
2022/02/10 00:18:06;;;;;;;;;;;8.00;99.90;8.60;100623.00;;;;346839;28;83633;-85
2022/02/10 00:19:10;;;;;;;;;;;8.10;99.90;8.50;100620.00;;;;346890;28;83388;-85
2022/02/10 00:20:32;;;;;;;;;;;8.10;99.90;8.50;100615.00;;;;347360;27;83305;-85
2022/02/10 00:20:49;;;;;;;;;;;8.00;99.90;8.50;100617.00;;;;345661;28;84910;-84
2022/02/10 00:21:13;;;;;;;;;;;8.00;99.90;8.50;100620.00;;;;342962;28;83326;-85
2022/02/10 00:21:49;;;;;;;;;;;8.00;99.90;8.50;100619.00;;;;345639;28;85236;-85
2022/02/10 00:22:19;;;;;;;;;;;8.00;99.90;8.50;100608.00;;;;345246;28;87851;-85
2022/02/10 00:23:27;;;;;;;;;;;8.00;99.90;8.50;100618.00;;;;344102;28;87785;-84
2022/02/10 00:34:28;;;;;;;;;;;8.00;99.90;8.40;100614.00;;;;329828;29;83421;-85
2022/02/10 00:34:42;;;;;;;;;;;8.00;99.90;8.50;100612.00;;;;328315;29;83136;-84
2022/02/10 00:34:57;;;;;;;;;;;8.00;99.90;8.60;100613.00;;;;327304;29;83680;-84
2022/02/10 00:35:32;;;;;;;;;;;8.00;99.90;8.60;100608.00;;;;328390;29;86588;-85
2022/02/10 00:35:55;;;;;;;;;;;8.00;99.90;8.60;100608.00;;;;325768;29;82590;-85
2022/02/10 00:36:10;;;;;;;;;;;8.00;99.90;8.50;100607.00;;;;327341;29;85615;-86
2022/02/10 00:36:26;;;;;;;;;;;8.10;99.90;8.50;100601.00;;;;327316;29;83619;-85
2022/02/10 00:36:57;;;;;;;;;;;8.00;99.90;8.50;100611.00;;;;327017;29;86010;-85
2022/02/10 00:37:13;;;;;;;;;;;8.10;99.90;8.50;100613.00;;;;327232;29;83637;-85
2022/02/10 00:37:35;;;;;;;;;;;8.10;99.90;8.60;100616.00;;;;326119;29;86817;-85
2022/02/10 00:37:57;;;;;;;;;;;8.00;99.90;8.60;100615.00;;;;323948;30;83667;-84
2022/02/10 00:38:07;;;;;;;;;;;8.10;99.90;8.60;100609.00;;;;327191;29;85956;-85
2022/02/10 00:38:22;;;;;;;;;;;8.00;99.90;8.70;100606.00;;;;328599;29;83432;-85
2022/02/10 00:38:35;;;;;;;;;;;8.00;99.90;8.60;100610.00;;;;327340;29;84884;-84
2022/02/10 00:38:56;;;;;;;;;;;8.10;99.90;8.60;100607.00;;;;326844;29;83539;-84
2022/02/10 00:40:12;;;;;;;;;;;8.10;99.90;8.50;100609.00;;;;328572;29;87040;-85
2022/02/10 00:40:27;;;;;;;;;;;8.10;99.90;8.50;100602.00;;;;327318;29;83569;-85
2022/02/10 00:40:37;;;;;;;;;;;8.10;99.90;8.50;100603.00;;;;326837;29;84138;-84
2022/02/10 00:40:48;;;;;;;;;;;8.10;99.90;8.50;100601.00;;;;327187;29;82559;-84
2022/02/10 00:40:59;;;;;;;;;;;8.00;99.90;8.50;100597.00;;;;325744;29;86569;-85
2022/02/10 00:41:09;;;;;;;;;;;8.00;99.90;8.50;100612.00;;;;325993;29;83593;-85
2022/02/10 00:41:20;;;;;;;;;;;8.00;99.90;8.50;100604.00;;;;327398;29;84777;-85
2022/02/10 00:41:30;;;;;;;;;;;8.10;99.90;8.50;100602.00;;;;327391;29;83404;-84
2022/02/10 00:41:41;;;;;;;;;;;8.00;99.90;8.60;100602.00;;;;326891;29;85274;-85
2022/02/10 00:41:52;;;;;;;;;;;8.00;99.90;8.60;100603.00;;;;323627;30;83530;-85
2022/02/10 00:42:03;;;;;;;;;;;8.00;99.90;8.60;100611.00;;;;326943;29;84865;-85
2022/02/10 00:42:13;;;;;;;;;;;8.00;99.90;8.60;100601.00;;;;328570;29;83538;-85
2022/02/10 00:42:24;;;;;;;;;;;8.10;99.90;8.70;100595.00;;;;327281;29;86019;-85
2022/02/10 00:42:35;;;;;;;;;;;8.10;99.90;8.60;100603.00;;;;327350;29;83579;-85
2022/02/10 00:42:46;;;;;;;;;;;8.10;99.90;8.60;100604.00;;;;327383;29;85554;-84
2022/02/10 00:42:57;;;;;;;;;;;8.10;99.90;8.60;100607.00;;;;327357;29;83679;-85
2022/02/10 00:43:10;;;;;;;;;;;8.00;99.90;8.60;100598.00;;;;324707;29;86167;-85
2022/02/10 00:43:20;;;;;;;;;;;8.10;99.90;8.50;100606.00;;;;328729;29;83534;-85
2022/02/10 00:43:31;;;;;;;;;;;8.10;99.90;8.50;100611.00;;;;328506;29;85862;-85
2022/02/10 00:43:42;;;;;;;;;;;8.10;99.90;8.50;100600.00;;;;325513;29;83807;-85
2022/02/10 00:43:52;;;;;;;;;;;8.10;99.90;8.50;100606.00;;;;327023;29;85040;-85
2022/02/10 00:44:03;;;;;;;;;;;8.10;99.90;8.50;100601.00;;;;328629;29;83469;-84
2022/02/10 00:44:14;;;;;;;;;;;8.10;99.90;8.50;100606.00;;;;329746;29;86100;-85
2022/02/10 00:44:25;;;;;;;;;;;8.00;99.90;8.50;100608.00;;;;327248;29;83413;-85
2022/02/10 00:44:37;;;;;;;;;;;8.10;99.90;8.50;100611.00;;;;324882;29;86937;-84
2022/02/10 00:44:47;;;;;;;;;;;8.10;99.90;8.50;100601.00;;;;326074;29;82429;-85
2022/02/10 00:44:58;;;;;;;;;;;8.10;99.90;8.50;100603.00;;;;324877;30;85175;-85
2022/02/10 00:45:09;;;;;;;;;;;8.00;99.90;8.40;100606.00;;;;324885;29;83921;-85
2022/02/10 00:45:21;;;;;;;;;;;8.00;99.90;8.40;100606.00;;;;326086;29;84811;-85
2022/02/10 00:45:32;;;;;;;;;;;8.00;99.90;8.40;100600.00;;;;325733;29;83478;-85
2022/02/10 00:45:44;;;;;;;;;;;8.00;99.90;8.40;100605.00;;;;324666;29;86179;-85
2022/02/10 00:45:55;;;;;;;;;;;8.00;99.90;8.50;100602.00;;;;326120;29;83428;-85
2022/02/10 00:46:06;;;;;;;;;;;8.00;99.90;8.50;100599.00;;;;328443;29;86310;-85
2022/02/10 00:46:16;;;;;;;;;;;8.00;99.90;8.50;100603.00;;;;327349;29;83307;-85
2022/02/10 00:46:27;;;;;;;;;;;8.00;99.90;8.50;100606.00;;;;329754;29;85979;-85
2022/02/10 00:46:37;;;;;;;;;;;8.00;99.90;8.50;100610.00;;;;329551;29;83722;-85
2022/02/10 00:46:48;;;;;;;;;;;8.00;99.90;8.50;100602.00;;;;329552;29;86128;-85
2022/02/10 00:46:59;;;;;;;;;;;8.00;99.90;8.50;100598.00;;;;329720;29;83694;-85
2022/02/10 00:47:09;;;;;;;;;;;8.00;99.90;8.40;100600.00;;;;329253;29;86383;-85
2022/02/10 00:47:20;;;;;;;;;;;8.00;99.90;8.40;100603.00;;;;328690;29;83390;-84
2022/02/10 00:47:42;;;;;;;;;;;8.00;99.90;8.40;100600.00;;;;327311;29;86384;-85
2022/02/10 00:47:59;;;;;;;;;;;8.00;99.90;8.40;100603.00;;;;327765;29;83524;-85
2022/02/10 00:48:11;;;;;;;;;;;8.00;99.90;8.40;100609.00;;;;328329;29;86843;-85
2022/02/10 00:48:22;;;;;;;;;;;8.00;99.90;8.40;100613.00;;;;329762;29;83376;-85
2022/02/10 00:48:32;;;;;;;;;;;8.00;99.90;8.40;100598.00;;;;329734;29;86471;-85
2022/02/10 00:48:43;;;;;;;;;;;8.00;99.90;8.40;100602.00;;;;331112;29;83508;-85
2022/02/10 00:48:54;;;;;;;;;;;8.00;99.90;8.40;100607.00;;;;331051;29;85933;-85
2022/02/10 00:49:04;;;;;;;;;;;8.00;99.90;8.50;100606.00;;;;330103;29;83606;-85
2022/02/10 00:49:15;;;;;;;;;;;7.90;99.90;8.50;100602.00;;;;329824;29;84945;-85
2022/02/10 00:49:26;;;;;;;;;;;7.90;99.90;8.50;100605.00;;;;332417;29;83301;-85
2022/02/10 00:49:37;;;;;;;;;;;8.00;99.90;8.60;100607.00;;;;330711;29;85512;-85
2022/02/10 00:49:48;;;;;;;;;;;8.00;99.90;8.50;100593.00;;;;330864;29;83587;-85
2022/02/10 00:50:00;;;;;;;;;;;8.00;99.90;8.40;100595.00;;;;330928;29;86671;-85
2022/02/10 00:50:10;;;;;;;;;;;8.00;99.90;8.40;100599.00;;;;332214;29;82478;-85
2022/02/10 00:50:23;;;;;;;;;;;7.90;99.90;8.40;100599.00;;;;332294;29;85800;-85
2022/02/10 00:50:35;;;;;;;;;;;7.90;99.90;8.40;100593.00;;;;332484;29;83338;-85
2022/02/10 00:50:48;;;;;;;;;;;7.90;99.90;8.40;100590.00;;;;330940;29;86625;-85
2022/02/10 00:50:59;;;;;;;;;;;7.90;99.90;8.40;100593.00;;;;329753;29;82395;-85
2022/02/10 00:51:10;;;;;;;;;;;7.90;99.90;8.40;100598.00;;;;329412;29;86482;-85
2022/02/10 00:51:21;;;;;;;;;;;7.90;99.90;8.40;100595.00;;;;330499;29;83480;-84
2022/02/10 00:51:31;;;;;;;;;;;7.90;99.90;8.40;100606.00;;;;329364;29;85896;-85
2022/02/10 00:51:42;;;;;;;;;;;7.90;99.90;8.40;100592.00;;;;326725;29;83499;-84
2022/02/10 00:51:54;;;;;;;;;;;7.90;99.90;8.50;100599.00;;;;325985;29;85235;-85
2022/02/10 00:52:06;;;;;;;;;;;7.90;99.90;8.40;100592.00;;;;328585;29;83533;-85
2022/02/10 00:52:16;;;;;;;;;;;7.90;99.90;8.40;100593.00;;;;330958;29;86128;-85
2022/02/10 00:52:27;;;;;;;;;;;7.90;99.90;8.30;100602.00;;;;329879;29;82695;-85
2022/02/10 00:52:42;;;;;;;;;;;7.90;99.90;8.40;100598.00;;;;329213;29;84853;-85
2022/02/10 00:53:00;;;;;;;;;;;7.90;99.90;8.40;100600.00;;;;330018;29;84100;-85
2022/02/10 00:53:22;;;;;;;;;;;7.90;99.90;8.40;100592.00;;;;331677;29;85551;-85
2022/02/10 00:53:38;;;;;;;;;;;7.90;99.90;8.50;100594.00;;;;329847;29;83653;-85
2022/02/10 00:53:48;;;;;;;;;;;7.90;99.90;8.50;100583.00;;;;329147;29;86404;-85
2022/02/10 00:53:59;;;;;;;;;;;7.90;99.90;8.50;100595.00;;;;326992;29;82590;-85
2022/02/10 00:54:11;;;;;;;;;;;7.90;99.90;8.40;100586.00;;;;329350;29;86014;-85
2022/02/10 00:54:25;;;;;;;;;;;7.90;99.90;8.40;100590.00;;;;327179;29;83401;-85
2022/02/10 00:54:38;;;;;;;;;;;7.90;99.90;8.40;100588.00;;;;327451;29;85973;-85
2022/02/10 00:54:48;;;;;;;;;;;7.90;99.90;8.40;100591.00;;;;327306;29;83586;-85
2022/02/10 00:55:01;;;;;;;;;;;7.90;99.90;8.50;100593.00;;;;331015;29;85054;-85
2022/02/10 00:55:15;;;;;;;;;;;7.90;99.90;8.50;100593.00;;;;329100;29;83502;-85
2022/02/10 00:55:29;;;;;;;;;;;7.90;99.90;8.50;100595.00;;;;328347;29;87411;-85
2022/02/10 00:55:42;;;;;;;;;;;7.90;99.90;8.50;100599.00;;;;328100;29;82449;-85
2022/02/10 00:55:53;;;;;;;;;;;7.90;99.90;8.50;100600.00;;;;327450;29;86738;-85
2022/02/10 00:56:05;;;;;;;;;;;7.90;99.90;8.50;100600.00;;;;331098;29;82477;-85
2022/02/10 00:56:16;;;;;;;;;;;7.90;99.90;8.50;100596.00;;;;330533;29;85530;-85
2022/02/10 00:56:27;;;;;;;;;;;7.90;99.90;8.50;100596.00;;;;329773;29;83450;-84
2022/02/10 00:56:37;;;;;;;;;;;7.90;99.90;8.50;100599.00;;;;329657;29;86424;-84
2022/02/10 00:56:48;;;;;;;;;;;7.90;99.90;8.50;100587.00;;;;331008;29;82494;-85
2022/02/10 00:57:02;;;;;;;;;;;7.90;99.90;8.50;100592.00;;;;330988;29;85848;-85
2022/02/10 00:57:13;;;;;;;;;;;8.00;99.90;8.50;100591.00;;;;328518;29;83502;-85
2022/02/10 00:57:24;;;;;;;;;;;7.90;99.90;8.40;100602.00;;;;328479;29;86821;-84
2022/02/10 00:57:35;;;;;;;;;;;7.90;99.90;8.40;100593.00;;;;328616;29;83401;-85
2022/02/10 00:57:46;;;;;;;;;;;7.90;99.90;8.40;100592.00;;;;329709;29;86435;-85
2022/02/10 00:57:57;;;;;;;;;;;7.90;99.90;8.50;100590.00;;;;329869;29;83353;-85
2022/02/10 00:58:11;;;;;;;;;;;7.90;99.90;8.40;100593.00;;;;327113;29;86850;-84
2022/02/10 00:58:27;;;;;;;;;;;7.90;99.90;8.50;100592.00;;;;328514;29;82412;-85
2022/02/10 00:58:41;;;;;;;;;;;7.90;99.90;8.50;100595.00;;;;325739;29;86769;-84
2022/02/10 00:59:07;;;;;;;;;;;7.90;99.90;8.50;100590.00;;;;327138;29;83614;-85
2022/02/10 01:07:05;;;;;;;;;;;7.90;99.90;8.40;100594.00;;;;344215;28;86593;-85
2022/02/10 01:10:30;;;;;;;;;;;7.80;99.90;8.30;100600.00;;;;345537;28;85256;-84
2022/02/10 01:11:02;;;;;;;;;;;7.80;99.90;8.40;100594.00;;;;343571;28;83578;-85
2022/02/10 01:13:22;;;;;;;;;;;7.80;99.90;8.30;100597.00;;;;342901;28;85277;-84
2022/02/10 01:13:59;;;;;;;;;;;7.80;99.90;8.30;100605.00;;;;345376;28;86795;-84
2022/02/10 01:29:42;;;;;;;;;;;7.80;99.90;8.30;100602.00;;;;340019;28;82463;-83
2022/02/10 01:29:54;;;;;;;;;;;7.80;99.90;8.20;100593.00;;;;341580;28;84153;-84
2022/02/10 01:30:06;;;;;;;;;;;7.80;99.90;8.20;100596.00;;;;340720;28;82428;-85
2022/02/10 01:30:18;;;;;;;;;;;7.80;99.90;8.40;100598.00;;;;339039;28;86514;-83
2022/02/10 01:30:30;;;;;;;;;;;7.80;99.90;8.40;100597.00;;;;337745;28;83555;-85
2022/02/10 01:30:42;;;;;;;;;;;7.80;99.90;8.40;100595.00;;;;340364;28;85269;-84
2022/02/10 01:30:56;;;;;;;;;;;7.80;99.90;8.30;100591.00;;;;341744;28;83474;-84
2022/02/10 01:31:10;;;;;;;;;;;7.80;99.90;8.20;100599.00;;;;340329;28;85359;-85
2022/02/10 01:31:21;;;;;;;;;;;7.80;99.90;8.30;100594.00;;;;338857;28;83514;-86
2022/02/10 01:31:34;;;;;;;;;;;7.80;99.90;8.30;100592.00;;;;338790;28;84971;-86
2022/02/10 01:31:46;;;;;;;;;;;7.80;99.90;8.30;100586.00;;;;342949;28;83750;-85
2022/02/10 01:31:57;;;;;;;;;;;7.80;99.90;8.30;100596.00;;;;342726;28;88568;-85
2022/02/10 01:32:09;;;;;;;;;;;7.80;99.90;8.30;100598.00;;;;340517;28;83557;-85
2022/02/10 01:32:21;;;;;;;;;;;7.80;99.90;8.30;100597.00;;;;342792;28;87679;-85
2022/02/10 01:32:33;;;;;;;;;;;7.80;99.90;8.20;100599.00;;;;340295;28;83376;-85
2022/02/10 01:32:48;;;;;;;;;;;7.80;99.90;8.30;100596.00;;;;337836;28;86421;-85
2022/02/10 01:33:01;;;;;;;;;;;7.80;99.90;8.20;100607.00;;;;337603;28;83401;-85
2022/02/10 01:33:13;;;;;;;;;;;7.70;99.90;8.30;100601.00;;;;337631;28;85595;-85
2022/02/10 01:33:25;;;;;;;;;;;7.70;99.90;8.30;100603.00;;;;338799;28;83314;-85
2022/02/10 01:33:39;;;;;;;;;;;7.80;99.90;8.40;100591.00;;;;338927;28;85067;-85
2022/02/10 01:33:50;;;;;;;;;;;7.80;99.90;8.40;100596.00;;;;338870;28;83259;-85
2022/02/10 01:34:02;;;;;;;;;;;7.80;99.90;8.40;100600.00;;;;338850;28;86003;-85
2022/02/10 01:34:14;;;;;;;;;;;7.70;99.90;8.40;100591.00;;;;339028;28;82481;-86
2022/02/10 01:34:27;;;;;;;;;;;7.70;99.90;8.30;100594.00;;;;341455;28;85184;-85
2022/02/10 01:34:46;;;;;;;;;;;7.70;99.90;8.30;100591.00;;;;341283;28;83435;-85
2022/02/10 01:34:58;;;;;;;;;;;7.80;99.90;8.30;100597.00;;;;340193;28;85027;-86
2022/02/10 01:35:14;;;;;;;;;;;7.70;99.90;8.30;100598.00;;;;340987;28;83227;-85
2022/02/10 01:35:26;;;;;;;;;;;7.70;99.90;8.30;100592.00;;;;342857;28;85072;-85
2022/02/10 01:35:38;;;;;;;;;;;7.70;99.90;8.20;100597.00;;;;341580;28;83182;-85
2022/02/10 01:35:50;;;;;;;;;;;7.70;99.90;8.30;100598.00;;;;337539;28;85046;-86
2022/02/10 01:36:01;;;;;;;;;;;7.70;99.90;8.30;100595.00;;;;340238;28;83489;-86
2022/02/10 01:36:13;;;;;;;;;;;7.70;99.90;8.30;100593.00;;;;340279;28;83920;-86
2022/02/10 01:36:25;;;;;;;;;;;7.70;99.90;8.20;100599.00;;;;338772;28;83418;-86
2022/02/10 01:36:37;;;;;;;;;;;7.70;99.90;8.10;100593.00;;;;338817;28;86453;-85
2022/02/10 01:36:48;;;;;;;;;;;7.70;99.90;8.10;100600.00;;;;340223;28;83307;-85
2022/02/10 01:37:00;;;;;;;;;;;7.70;99.90;8.20;100604.00;;;;338967;28;83651;-86
2022/02/10 01:37:12;;;;;;;;;;;7.70;99.90;8.20;100600.00;;;;338959;28;82461;-85
2022/02/10 01:37:24;;;;;;;;;;;7.70;99.90;8.20;100596.00;;;;341527;28;85168;-86
2022/02/10 01:37:36;;;;;;;;;;;7.70;99.90;8.10;100607.00;;;;341473;28;83470;-85
2022/02/10 01:37:48;;;;;;;;;;;7.70;99.90;8.10;100596.00;;;;341390;28;83751;-85
2022/02/10 01:38:00;;;;;;;;;;;7.70;99.90;8.10;100597.00;;;;340076;28;83349;-85
2022/02/10 01:38:11;;;;;;;;;;;7.70;99.90;8.10;100597.00;;;;340894;28;85148;-85
2022/02/10 01:38:23;;;;;;;;;;;7.70;99.90;8.10;100598.00;;;;341380;28;83437;-85
2022/02/10 01:38:35;;;;;;;;;;;7.70;99.90;8.00;100605.00;;;;339950;28;84939;-86
2022/02/10 01:38:47;;;;;;;;;;;7.60;99.90;8.00;100598.00;;;;337779;28;82550;-85
2022/02/10 01:38:59;;;;;;;;;;;7.60;99.90;8.00;100601.00;;;;338658;28;85785;-85
2022/02/10 01:39:10;;;;;;;;;;;7.60;99.90;8.00;100597.00;;;;338825;28;83591;-85
2022/02/10 01:39:29;;;;;;;;;;;7.60;99.90;8.10;100602.00;;;;338708;28;87132;-86
2022/02/10 01:39:47;;;;;;;;;;;7.60;99.90;8.00;100599.00;;;;336236;28;82392;-85
2022/02/10 01:40:10;;;;;;;;;;;7.60;99.90;8.10;100597.00;;;;338874;28;84917;-85
2022/02/10 01:42:02;;;;;;;;;;;7.60;99.90;8.00;100603.00;;;;337343;28;85035;-85
2022/02/10 01:58:13;;;;;;;;;;;7.50;99.90;8.10;100600.00;;;;342641;28;88576;-85
2022/02/10 02:03:27;;;;;;;;;;;7.50;99.90;8.10;100603.00;;;;338955;28;83269;-85
2022/02/10 02:03:39;;;;;;;;;;;7.50;99.90;8.10;100598.00;;;;345524;28;88627;-86
2022/02/10 02:03:51;;;;;;;;;;;7.50;99.90;8.20;100598.00;;;;342858;28;83389;-84
2022/02/10 02:04:03;;;;;;;;;;;7.50;99.90;8.20;100594.00;;;;344251;28;84385;-85
2022/02/10 02:04:20;;;;;;;;;;;7.50;99.90;8.20;100594.00;;;;344396;28;83275;-85
2022/02/10 02:04:31;;;;;;;;;;;7.50;99.90;8.20;100603.00;;;;344079;28;85016;-85
2022/02/10 02:04:44;;;;;;;;;;;7.50;99.90;8.10;100601.00;;;;343532;28;83732;-85
2022/02/10 02:04:56;;;;;;;;;;;7.50;99.90;8.10;100596.00;;;;344097;28;85084;-85
2022/02/10 02:05:17;;;;;;;;;;;7.50;99.90;8.10;100592.00;;;;342810;28;83533;-85
2022/02/10 02:05:39;;;;;;;;;;;7.50;99.90;8.20;100590.00;;;;342931;28;84591;-85
2022/02/10 02:06:14;;;;;;;;;;;7.50;99.90;8.00;100603.00;;;;341463;28;83086;-85
2022/02/10 02:06:34;;;;;;;;;;;7.50;99.90;8.10;100600.00;;;;342769;28;85017;-86
2022/02/10 02:06:47;;;;;;;;;;;7.50;99.90;8.10;100594.00;;;;342870;28;83427;-86
2022/02/10 02:06:59;;;;;;;;;;;7.50;99.90;8.10;100593.00;;;;344256;28;84664;-85
2022/02/10 02:07:11;;;;;;;;;;;7.50;99.90;8.20;100582.00;;;;345365;28;83402;-85
2022/02/10 02:07:28;;;;;;;;;;;7.50;99.90;8.20;100601.00;;;;345491;28;88423;-85
2022/02/10 02:07:40;;;;;;;;;;;7.50;99.90;8.10;100599.00;;;;345270;28;88559;-85
2022/02/10 02:07:52;;;;;;;;;;;7.50;99.90;8.20;100595.00;;;;344395;28;84436;-85
2022/02/10 02:08:06;;;;;;;;;;;7.60;99.90;8.20;100596.00;;;;344213;28;82444;-85
2022/02/10 02:08:25;;;;;;;;;;;7.60;99.90;8.20;100596.00;;;;344099;28;87763;-85
2022/02/10 02:08:39;;;;;;;;;;;7.60;99.90;8.20;100596.00;;;;344381;28;83338;-85
2022/02/10 02:08:51;;;;;;;;;;;7.60;99.90;8.20;100592.00;;;;344275;28;84105;-85
2022/02/10 02:09:09;;;;;;;;;;;7.60;99.90;8.10;100591.00;;;;344302;28;83373;-85
2022/02/10 02:09:21;;;;;;;;;;;7.60;99.90;8.10;100591.00;;;;344252;28;84203;-85
2022/02/10 02:09:33;;;;;;;;;;;7.60;99.90;8.20;100592.00;;;;343009;28;83432;-86
2022/02/10 02:09:45;;;;;;;;;;;7.60;99.90;8.20;100588.00;;;;344185;28;84587;-85
2022/02/10 02:09:56;;;;;;;;;;;7.60;99.90;8.20;100583.00;;;;344250;28;83388;-85
2022/02/10 02:10:08;;;;;;;;;;;7.60;99.90;8.20;100590.00;;;;344205;28;84458;-85
2022/02/10 02:10:20;;;;;;;;;;;7.60;99.90;8.10;100595.00;;;;344253;28;83358;-85
2022/02/10 02:10:32;;;;;;;;;;;7.60;99.90;8.10;100591.00;;;;344294;28;84810;-85
2022/02/10 02:10:44;;;;;;;;;;;7.60;99.90;8.20;100587.00;;;;344842;28;83459;-85
2022/02/10 02:10:55;;;;;;;;;;;7.60;99.90;8.10;100589.00;;;;344642;28;86745;-85
2022/02/10 02:11:07;;;;;;;;;;;7.60;99.90;8.10;100582.00;;;;341235;28;83443;-85
2022/02/10 02:11:26;;;;;;;;;;;7.60;99.90;8.00;100587.00;;;;342788;28;87766;-85
2022/02/10 02:11:39;;;;;;;;;;;7.60;99.90;8.00;100580.00;;;;344382;28;83271;-85
2022/02/10 02:11:52;;;;;;;;;;;7.60;99.90;8.10;100594.00;;;;342759;28;87864;-85
2022/02/10 02:12:07;;;;;;;;;;;7.60;99.90;8.10;100591.00;;;;342835;28;83490;-85
2022/02/10 02:12:19;;;;;;;;;;;7.60;99.90;8.20;100587.00;;;;342742;28;86024;-85
2022/02/10 02:12:30;;;;;;;;;;;7.60;99.90;8.10;100595.00;;;;344353;28;83380;-86
2022/02/10 02:12:48;;;;;;;;;;;7.60;99.90;8.00;100591.00;;;;345622;28;85254;-85
2022/02/10 02:13:03;;;;;;;;;;;7.60;99.90;8.10;100595.00;;;;345745;28;83273;-85
2022/02/10 02:13:15;;;;;;;;;;;7.60;99.90;8.10;100586.00;;;;346984;28;85028;-85
2022/02/10 02:13:26;;;;;;;;;;;7.60;99.90;8.10;100588.00;;;;345615;28;83448;-85
2022/02/10 02:13:38;;;;;;;;;;;7.60;99.90;8.10;100583.00;;;;342088;28;86483;-85
2022/02/10 02:13:50;;;;;;;;;;;7.60;99.90;8.10;100583.00;;;;344132;28;83505;-85
2022/02/10 02:14:02;;;;;;;;;;;7.60;99.90;8.10;100588.00;;;;344151;28;87213;-85
2022/02/10 02:14:15;;;;;;;;;;;7.60;99.90;8.20;100582.00;;;;344245;28;82540;-85
2022/02/10 02:14:27;;;;;;;;;;;7.60;99.90;8.10;100588.00;;;;343540;28;84860;-85
2022/02/10 02:14:39;;;;;;;;;;;7.60;99.90;8.10;100587.00;;;;341806;28;83296;-85
2022/02/10 02:14:51;;;;;;;;;;;7.60;99.90;8.10;100583.00;;;;344555;28;85398;-85
2022/02/10 02:15:03;;;;;;;;;;;7.60;99.90;8.10;100583.00;;;;343358;28;82983;-85
2022/02/10 02:15:15;;;;;;;;;;;7.60;99.90;8.10;100582.00;;;;343280;28;85275;-85
2022/02/10 02:15:26;;;;;;;;;;;7.60;99.90;8.00;100590.00;;;;343471;28;83408;-85
2022/02/10 02:15:38;;;;;;;;;;;7.60;99.90;8.10;100596.00;;;;344645;28;83659;-85
2022/02/10 02:15:51;;;;;;;;;;;7.60;99.90;8.20;100587.00;;;;344794;28;83281;-85
2022/02/10 02:16:03;;;;;;;;;;;7.60;99.90;8.20;100586.00;;;;344686;28;84975;-85
2022/02/10 02:16:15;;;;;;;;;;;7.60;99.90;8.20;100583.00;;;;346196;28;83406;-85
2022/02/10 02:16:27;;;;;;;;;;;7.60;99.90;8.20;100592.00;;;;345988;28;85004;-85
2022/02/10 02:16:56;;;;;;;;;;;7.60;99.90;8.10;100591.00;;;;345215;28;83359;-85
2022/02/10 02:17:07;;;;;;;;;;;7.60;99.90;8.10;100593.00;;;;342049;28;85606;-85
2022/02/10 02:17:20;;;;;;;;;;;7.60;99.90;8.10;100583.00;;;;344839;28;83328;-85
2022/02/10 02:17:31;;;;;;;;;;;7.60;99.90;8.10;100587.00;;;;344577;28;86268;-85
2022/02/10 02:17:45;;;;;;;;;;;7.60;99.90;8.00;100583.00;;;;343182;28;83574;-85
2022/02/10 02:17:57;;;;;;;;;;;7.60;99.90;8.00;100588.00;;;;343256;28;86250;-85
2022/02/10 02:18:09;;;;;;;;;;;7.60;99.90;8.00;100589.00;;;;343386;28;83483;-85
2022/02/10 02:18:20;;;;;;;;;;;7.60;99.90;8.00;100590.00;;;;344643;28;85172;-85
2022/02/10 02:18:32;;;;;;;;;;;7.60;99.90;8.10;100592.00;;;;344807;28;83158;-85
2022/02/10 02:18:45;;;;;;;;;;;7.50;99.90;8.10;100581.00;;;;343323;28;85809;-85
2022/02/10 02:18:57;;;;;;;;;;;7.50;99.90;8.10;100583.00;;;;344804;28;83227;-85
2022/02/10 02:19:09;;;;;;;;;;;7.50;99.90;8.10;100592.00;;;;343185;28;86247;-85
2022/02/10 02:19:21;;;;;;;;;;;7.60;99.90;8.00;100581.00;;;;343222;28;83318;-85
2022/02/10 02:19:32;;;;;;;;;;;7.50;99.90;8.00;100573.00;;;;341835;28;85278;-85
2022/02/10 02:19:47;;;;;;;;;;;7.50;99.90;8.00;100586.00;;;;343045;28;83444;-85
2022/02/10 02:19:59;;;;;;;;;;;7.50;99.90;8.00;100586.00;;;;343197;28;83988;-84
2022/02/10 02:20:11;;;;;;;;;;;7.50;99.90;8.00;100583.00;;;;344572;28;82540;-86
2022/02/10 02:20:22;;;;;;;;;;;7.50;99.90;8.10;100591.00;;;;344587;28;86309;-85
2022/02/10 02:20:34;;;;;;;;;;;7.50;99.90;8.10;100586.00;;;;346058;28;83275;-85
2022/02/10 02:20:50;;;;;;;;;;;7.50;99.90;8.10;100588.00;;;;345887;28;87712;-85
2022/02/10 02:21:02;;;;;;;;;;;7.50;99.90;8.10;100582.00;;;;344632;28;83251;-85
2022/02/10 02:21:19;;;;;;;;;;;7.50;99.90;8.10;100580.00;;;;341897;28;86992;-85
2022/02/10 02:21:34;;;;;;;;;;;7.50;99.90;8.10;100582.00;;;;342015;28;83303;-86
2022/02/10 02:21:46;;;;;;;;;;;7.50;99.90;8.10;100576.00;;;;344589;28;88302;-85
2022/02/10 02:22:03;;;;;;;;;;;7.50;99.90;8.20;100587.00;;;;344803;28;83204;-85
2022/02/10 02:22:18;;;;;;;;;;;7.50;99.90;8.10;100578.00;;;;343330;28;84685;-85
2022/02/10 02:22:30;;;;;;;;;;;7.50;99.90;8.10;100586.00;;;;342043;28;83318;-85
2022/02/10 02:22:42;;;;;;;;;;;7.50;99.90;8.20;100586.00;;;;342249;28;85579;-85
2022/02/10 02:22:53;;;;;;;;;;;7.60;99.90;8.20;100579.00;;;;346239;28;82497;-85
2022/02/10 02:23:05;;;;;;;;;;;7.60;99.90;8.10;100579.00;;;;345700;28;86827;-85
2022/02/10 02:23:18;;;;;;;;;;;7.50;99.90;8.00;100578.00;;;;344655;28;82415;-85
2022/02/10 02:23:30;;;;;;;;;;;7.50;99.90;8.10;100581.00;;;;341834;28;86673;-84
2022/02/10 02:23:42;;;;;;;;;;;7.50;99.90;8.00;100580.00;;;;344687;28;83309;-85
2022/02/10 02:23:53;;;;;;;;;;;7.50;99.90;8.00;100580.00;;;;343316;28;84182;-85
2022/02/10 02:24:06;;;;;;;;;;;7.50;99.90;8.00;100582.00;;;;343374;28;83356;-85
2022/02/10 02:24:22;;;;;;;;;;;7.50;99.90;8.00;100571.00;;;;343311;28;85165;-86
2022/02/10 02:24:34;;;;;;;;;;;7.50;99.90;8.00;100580.00;;;;343404;28;83272;-85
2022/02/10 02:24:49;;;;;;;;;;;7.50;99.90;8.10;100573.00;;;;344687;28;83914;-85
2022/02/10 02:25:00;;;;;;;;;;;7.50;99.90;8.10;100580.00;;;;344665;28;83591;-85
2022/02/10 02:25:13;;;;;;;;;;;7.50;99.90;8.00;100576.00;;;;344655;28;84305;-85
2022/02/10 02:25:25;;;;;;;;;;;7.50;99.90;8.00;100579.00;;;;344721;28;83451;-85
2022/02/10 02:25:36;;;;;;;;;;;7.50;99.90;8.00;100588.00;;;;341691;28;86696;-85
2022/02/10 02:25:53;;;;;;;;;;;7.50;99.90;8.10;100575.00;;;;340120;28;82371;-85
2022/02/10 02:26:13;;;;;;;;;;;7.50;99.90;8.00;100582.00;;;;340461;28;86637;-85
2022/02/10 02:26:26;;;;;;;;;;;7.50;99.90;8.00;100581.00;;;;341811;28;83395;-85
2022/02/10 02:26:38;;;;;;;;;;;7.50;99.90;8.00;100572.00;;;;343234;28;86513;-85
2022/02/10 02:26:51;;;;;;;;;;;7.50;99.90;8.00;100578.00;;;;343418;28;83425;-85
2022/02/10 02:27:08;;;;;;;;;;;7.50;99.90;8.00;100587.00;;;;341893;28;84600;-85
2022/02/10 02:27:20;;;;;;;;;;;7.50;99.90;8.10;100573.00;;;;342044;28;83263;-85
2022/02/10 02:27:49;;;;;;;;;;;7.50;99.90;7.90;100572.00;;;;340599;28;86450;-85
2022/02/10 02:28:01;;;;;;;;;;;7.50;99.90;7.80;100586.00;;;;340792;28;83217;-85
2022/02/10 02:28:14;;;;;;;;;;;7.50;99.90;7.90;100581.00;;;;340537;28;86002;-85
2022/02/10 02:28:25;;;;;;;;;;;7.50;99.90;7.90;100575.00;;;;341905;28;83281;-85
2022/02/10 02:28:40;;;;;;;;;;;7.50;99.90;7.90;100580.00;;;;341930;28;84820;-85
2022/02/10 02:28:57;;;;;;;;;;;7.50;99.90;7.80;100588.00;;;;343239;28;83815;-85
2022/02/10 02:29:12;;;;;;;;;;;7.50;99.90;7.90;100582.00;;;;343104;28;87554;-85
2022/02/10 02:29:32;;;;;;;;;;;7.40;99.90;7.90;100580.00;;;;343377;28;83279;-86
2022/02/10 02:29:51;;;;;;;;;;;7.40;99.90;7.80;100582.00;;;;343734;28;85011;-85
2022/02/10 02:30:11;;;;;;;;;;;7.40;99.90;7.90;100577.00;;;;343072;28;83839;-85
2022/02/10 02:30:51;;;;;;;;;;;7.40;99.90;7.90;100586.00;;;;343160;28;87915;-85
2022/02/10 02:31:06;;;;;;;;;;;7.40;99.90;7.90;100578.00;;;;343349;28;83340;-85
2022/02/10 02:31:21;;;;;;;;;;;7.40;99.90;7.90;100581.00;;;;341936;28;84712;-85
2022/02/10 02:31:42;;;;;;;;;;;7.40;99.90;8.00;100582.00;;;;343486;28;83409;-86
2022/02/10 02:31:58;;;;;;;;;;;7.40;99.90;8.00;100575.00;;;;342363;28;85198;-85
2022/02/10 02:32:16;;;;;;;;;;;7.40;99.90;7.90;100572.00;;;;344266;28;83234;-85